createdAt,value
2022-12-11T00:02:00.131Z,100230.87
2022-12-11T00:04:28.112Z,100228.14
2022-12-11T00:06:56.214Z,100226.52
2022-12-11T00:09:23.995Z,100222.38
2022-12-11T00:11:51.822Z,100217.63
2022-12-11T00:14:19.715Z,100218.16
2022-12-11T00:16:49.228Z,100210.08
2022-12-11T00:19:17.172Z,100209.18
2022-12-11T00:21:45.787Z,100205.76
2022-12-11T00:24:13.612Z,100206.19
2022-12-11T00:26:41.419Z,100205.45
2022-12-11T00:29:14.523Z,100203.81
2022-12-11T00:31:42.546Z,100205.30
2022-12-11T00:34:12.115Z,100203.30
2022-12-11T00:36:40.124Z,100198.98
2022-12-11T00:39:07.957Z,100199.17
2022-12-11T00:41:35.816Z,100202.69
2022-12-11T00:44:03.866Z,100203.14
2022-12-11T00:46:31.834Z,100207.06
2022-12-11T00:48:59.663Z,100207.06
2022-12-11T00:51:27.560Z,100206.88
2022-12-11T00:53:56.691Z,100205.14
2022-12-11T00:56:25.332Z,100199.33
2022-12-11T00:58:53.140Z,100196.67
2022-12-11T01:01:24.305Z,100198.56
2022-12-11T01:03:54.128Z,100199.67
2022-12-11T01:06:24.879Z,100202.46
2022-12-11T01:09:11.384Z,100206.55
2022-12-11T01:11:41.151Z,100209.54
2022-12-11T01:14:10.361Z,100214.20
2022-12-11T01:16:38.299Z,100212.84
2022-12-11T01:19:06.403Z,100211.48
2022-12-11T01:21:34.234Z,100212.52
2022-12-11T01:24:02.010Z,100203.91
2022-12-11T01:26:30.733Z,100208.30
2022-12-11T01:28:58.715Z,100207.16
2022-12-11T01:31:26.548Z,100205.11
2022-12-11T01:33:55.379Z,100200.49
2022-12-11T01:36:23.764Z,100202.83
2022-12-11T01:38:51.849Z,100203.02
2022-12-11T01:41:20.812Z,100206.30
2022-12-11T01:44:04.681Z,100206.55
2022-12-11T01:46:35.026Z,100207.45
2022-12-11T01:49:07.580Z,100204.73
2022-12-11T01:51:41.670Z,100202.22
2022-12-11T01:54:13.703Z,100205.67
2022-12-11T01:56:45.251Z,100209.36
2022-12-11T01:59:17.847Z,100212.60
2022-12-11T02:02:06.660Z,100213.56
2022-12-11T02:04:37.612Z,100209.80
2022-12-11T02:07:05.859Z,100206.96
2022-12-11T02:09:36.315Z,100203.71
2022-12-11T02:12:10.331Z,100198.77
2022-12-11T02:15:05.587Z,100200.77
2022-12-11T02:17:59.957Z,100197.39
2022-12-11T02:20:37.719Z,100198.91
2022-12-11T02:23:17.685Z,100199.00
2022-12-11T02:26:06.949Z,100193.67
2022-12-11T02:28:42.380Z,100190.16
2022-12-11T02:31:15.988Z,100189.87
2022-12-11T02:33:55.096Z,100191.65
2022-12-11T02:36:26.274Z,100187.54
2022-12-11T02:38:56.735Z,100187.85
2022-12-11T02:41:26.979Z,100189.55
2022-12-11T02:43:57.755Z,100183.59
2022-12-11T02:46:27.019Z,100176.79
2022-12-11T02:48:56.777Z,100174.65
2022-12-11T02:51:28.829Z,100175.48
2022-12-11T02:53:59.056Z,100169.55
2022-12-11T02:56:50.892Z,100172.38
2022-12-11T02:59:46.469Z,100170.95
2022-12-11T03:02:16.728Z,100176.35
2022-12-11T03:04:45.972Z,100174.08
2022-12-11T03:07:18.834Z,100175.08
2022-12-11T03:09:48.347Z,100181.25
2022-12-11T03:12:24.313Z,100183.53
2022-12-11T03:14:52.139Z,100184.45
2022-12-11T03:17:23.161Z,100184.34
2022-12-11T03:20:17.513Z,100181.71
2022-12-11T03:22:56.054Z,100184.59
2022-12-11T03:25:34.223Z,100186.23
2022-12-11T03:28:13.574Z,100180.08
2022-12-11T03:30:43.882Z,100182.91
2022-12-11T03:33:20.728Z,100184.35
2022-12-11T03:35:56.213Z,100187.22
2022-12-11T03:38:28.474Z,100192.23
2022-12-11T03:41:00.786Z,100188.60
2022-12-11T03:43:30.033Z,100188.05
2022-12-11T03:45:59.876Z,100189.19
2022-12-11T03:48:33.364Z,100191.23
2022-12-11T03:51:04.879Z,100184.88
2022-12-11T03:53:35.686Z,100180.63
2022-12-11T03:56:07.404Z,100173.66
2022-12-11T03:58:35.431Z,100169.19
2022-12-11T04:01:03.256Z,100171.42
2022-12-11T04:03:31.112Z,100168.83
2022-12-11T04:05:58.970Z,100169.84
2022-12-11T04:08:26.984Z,100177.00
2022-12-11T04:11:13.466Z,100178.40
2022-12-11T04:13:41.904Z,100177.23
2022-12-11T04:16:09.955Z,100176.63
2022-12-11T04:18:56.187Z,100176.09
2022-12-11T04:21:42.406Z,100176.80
2022-12-11T04:24:16.011Z,100175.39
2022-12-11T04:26:45.923Z,100170.39
2022-12-11T04:29:14.664Z,100169.69
2022-12-11T04:31:42.578Z,100164.72
2022-12-11T04:34:10.574Z,100161.91
2022-12-11T04:36:38.378Z,100151.59
2022-12-11T04:39:06.369Z,100153.02
2022-12-11T04:41:34.346Z,100146.35
2022-12-11T04:44:02.128Z,100147.86
2022-12-11T04:46:29.910Z,100146.66
2022-12-11T04:48:58.181Z,100141.54
2022-12-11T04:51:27.266Z,100140.49
2022-12-11T04:53:55.532Z,100138.56
2022-12-11T04:56:23.376Z,100140.71
2022-12-11T04:58:51.215Z,100140.36
2022-12-11T05:01:22.167Z,100138.42
2022-12-11T05:03:50.443Z,100136.92
2022-12-11T05:06:18.371Z,100131.91
2022-12-11T05:08:46.232Z,100128.73
2022-12-11T05:11:15.870Z,100129.63
2022-12-11T05:13:44.926Z,100125.50
2022-12-11T05:16:15.566Z,100126.67
2022-12-11T05:18:44.097Z,100119.18
2022-12-11T05:21:13.658Z,100113.17
2022-12-11T05:23:42.365Z,100112.63
2022-12-11T05:26:19.232Z,100113.85
2022-12-11T05:28:51.908Z,100114.70
2022-12-11T05:31:25.065Z,100116.46
2022-12-11T05:33:53.656Z,100119.23
2022-12-11T05:36:27.924Z,100120.55
2022-12-11T05:38:57.090Z,100127.18
2022-12-11T05:41:27.175Z,100129.96
2022-12-11T05:43:55.423Z,100125.52
2022-12-11T05:46:25.637Z,100120.77
2022-12-11T05:48:59.711Z,100117.77
2022-12-11T05:51:28.655Z,100116.34
2022-12-11T05:53:57.867Z,100116.02
2022-12-11T05:56:29.569Z,100124.80
2022-12-11T05:58:58.672Z,100129.33
2022-12-11T06:01:33.452Z,100130.13
2022-12-11T06:04:02.433Z,100119.46
2022-12-11T06:06:30.335Z,100117.48
2022-12-11T06:08:59.639Z,100121.14
2022-12-11T06:11:29.162Z,100118.14
2022-12-11T06:13:57.022Z,100118.34
2022-12-11T06:16:25.486Z,100118.45
2022-12-11T06:18:57.863Z,100121.03
2022-12-11T06:21:31.435Z,100120.61
2022-12-11T06:24:03.487Z,100123.36
2022-12-11T06:26:32.213Z,100119.63
2022-12-11T06:29:00.030Z,100117.27
2022-12-11T06:31:28.244Z,100122.84
2022-12-11T06:33:56.023Z,100113.52
2022-12-11T06:36:24.745Z,100114.23
2022-12-11T06:38:52.734Z,100113.55
2022-12-11T06:41:20.521Z,100115.54
2022-12-11T06:43:48.512Z,100121.04
2022-12-11T06:46:18.652Z,100123.70
2022-12-11T06:48:48.048Z,100123.50
2022-12-11T06:51:21.992Z,100122.89
2022-12-11T06:53:54.516Z,100115.95
2022-12-11T06:56:23.665Z,100111.39
2022-12-11T06:58:52.116Z,100109.55
2022-12-11T07:01:25.958Z,100108.52
2022-12-11T07:03:55.868Z,100107.14
2022-12-11T07:06:25.278Z,100104.84
2022-12-11T07:08:53.436Z,100112.30
2022-12-11T07:11:22.353Z,100118.52
2022-12-11T07:13:50.251Z,100125.56
2022-12-11T07:16:18.814Z,100132.40
2022-12-11T07:18:49.753Z,100134.93
2022-12-11T07:21:18.460Z,100132.92
2022-12-11T07:23:47.230Z,100130.21
2022-12-11T07:26:17.608Z,100128.63
2022-12-11T07:28:45.329Z,100129.30
2022-12-11T07:31:16.147Z,100121.14
2022-12-11T07:33:44.062Z,100118.58
2022-12-11T07:36:14.754Z,100119.27
2022-12-11T07:38:42.572Z,100112.06
2022-12-11T07:41:12.693Z,100109.73
2022-12-11T07:43:41.367Z,100118.84
2022-12-11T07:46:13.130Z,100124.70
2022-12-11T07:48:43.744Z,100130.67
2022-12-11T07:51:20.463Z,100135.29
2022-12-11T07:53:50.067Z,100142.05
2022-12-11T07:56:19.089Z,100138.75
2022-12-11T07:58:47.573Z,100135.97
2022-12-11T08:01:21.550Z,100136.44
2022-12-11T08:03:50.711Z,100137.30
2022-12-11T08:06:21.392Z,100138.30
2022-12-11T08:08:49.229Z,100136.38
2022-12-11T08:11:17.087Z,100139.05
2022-12-11T08:13:44.858Z,100143.73
2022-12-11T08:16:14.918Z,100141.02
2022-12-11T08:18:44.211Z,100136.49
2022-12-11T08:21:13.583Z,100132.27
2022-12-11T08:23:41.722Z,100120.65
2022-12-11T08:26:13.004Z,100108.80
2022-12-11T08:28:41.052Z,100101.92
2022-12-11T08:31:10.651Z,100095.23
2022-12-11T08:33:39.743Z,100089.73
2022-12-11T08:36:10.060Z,100094.07
2022-12-11T08:38:38.010Z,100088.54
2022-12-11T08:41:14.385Z,100085.34
2022-12-11T08:43:43.092Z,100087.41
2022-12-11T08:46:13.561Z,100090.07
2022-12-11T08:48:43.479Z,100091.96
2022-12-11T08:51:15.555Z,100095.15
2022-12-11T08:53:44.439Z,100093.14
2022-12-11T08:56:15.887Z,100095.64
2022-12-11T08:58:44.855Z,100096.17
2022-12-11T09:01:26.884Z,100098.06
2022-12-11T09:03:56.660Z,100100.20
2022-12-11T09:06:27.915Z,100097.16
2022-12-11T09:08:58.530Z,100104.23
2022-12-11T09:11:29.565Z,100102.91
2022-12-11T09:14:02.102Z,100102.15
2022-12-11T09:16:33.905Z,100100.77
2022-12-11T09:19:01.690Z,100098.71
2022-12-11T09:21:30.352Z,100094.16
2022-12-11T09:24:00.250Z,100091.98
2022-12-11T09:26:30.221Z,100091.48
2022-12-11T09:28:58.920Z,100090.84
2022-12-11T09:31:29.719Z,100093.16
2022-12-11T09:34:03.992Z,100095.13
2022-12-11T09:36:32.532Z,100100.04
2022-12-11T09:39:02.627Z,100097.39
2022-12-11T09:41:49.665Z,100092.22
2022-12-11T09:44:46.433Z,100091.00
2022-12-11T09:47:32.107Z,100085.73
2022-12-11T09:50:06.610Z,100085.27
2022-12-11T09:52:53.119Z,100078.94
2022-12-11T09:55:24.352Z,100076.92
2022-12-11T09:58:06.707Z,100079.86
2022-12-11T10:01:09.655Z,100078.65
2022-12-11T10:03:59.938Z,100071.39
2022-12-11T10:06:37.095Z,100068.00
2022-12-11T10:09:26.070Z,100064.55
2022-12-11T10:12:06.065Z,100058.30
2022-12-11T10:15:15.122Z,100055.75
2022-12-11T10:17:44.762Z,100053.55
2022-12-11T10:20:24.563Z,100055.47
2022-12-11T10:22:54.411Z,100054.63
2022-12-11T10:25:45.018Z,100050.54
2022-12-11T10:28:18.265Z,100045.99
2022-12-11T10:30:55.609Z,100044.11
2022-12-11T10:33:45.545Z,100038.85
2022-12-11T10:36:21.207Z,100034.95
2022-12-11T10:38:49.226Z,100032.98
2022-12-11T10:41:24.606Z,100031.84
2022-12-11T10:43:53.913Z,100025.88
2022-12-11T10:46:33.163Z,100020.68
2022-12-11T10:49:01.941Z,100012.96
2022-12-11T10:51:32.502Z,100008.98
2022-12-11T10:54:16.592Z,100008.20
2022-12-11T10:56:48.431Z,100004.71
2022-12-11T10:59:31.360Z,99997.98
2022-12-11T11:01:59.824Z,99990.98
2022-12-11T11:04:32.456Z,99992.64
2022-12-11T11:07:14.138Z,99990.36
2022-12-11T11:09:42.612Z,99984.83
2022-12-11T11:12:22.747Z,99979.35
2022-12-11T11:15:12.145Z,99979.20
2022-12-11T11:17:55.407Z,99978.81
2022-12-11T11:20:29.535Z,99979.26
2022-12-11T11:23:01.621Z,99978.48
2022-12-11T11:25:32.583Z,99980.93
2022-12-11T11:28:03.916Z,99978.81
2022-12-11T11:30:41.407Z,99973.32
2022-12-11T11:33:13.714Z,99976.36
2022-12-11T11:35:52.581Z,99977.61
2022-12-11T11:38:25.140Z,99978.15
2022-12-11T11:41:15.480Z,99979.61
2022-12-11T11:43:47.590Z,99972.42
2022-12-11T11:46:36.907Z,99971.98
2022-12-11T11:49:22.945Z,99966.60
2022-12-11T11:51:56.562Z,99968.42
2022-12-11T11:54:33.937Z,99962.01
2022-12-11T11:57:13.396Z,99962.31
2022-12-11T11:59:49.876Z,99960.64
2022-12-11T12:02:18.798Z,99955.59
2022-12-11T12:04:49.305Z,99948.52
2022-12-11T12:07:44.635Z,99944.70
2022-12-11T12:10:35.773Z,99935.50
2022-12-11T12:13:47.681Z,99937.42
2022-12-11T12:16:22.946Z,99930.17
2022-12-11T12:19:18.408Z,99928.31
2022-12-11T12:21:51.433Z,99921.02
2022-12-11T12:24:51.117Z,99917.70
2022-12-11T12:27:52.731Z,99916.67
2022-12-11T12:30:23.209Z,99911.84
2022-12-11T12:33:15.163Z,99912.71
2022-12-11T12:36:07.362Z,99914.63
2022-12-11T12:38:51.448Z,99911.23
2022-12-11T12:41:33.055Z,99910.09
2022-12-11T12:44:09.992Z,99906.05
2022-12-11T12:46:59.505Z,99906.80
2022-12-11T12:50:03.409Z,99906.08
2022-12-11T12:52:34.885Z,99904.48
2022-12-11T12:55:23.055Z,99899.80
2022-12-11T12:58:00.604Z,99898.38
2022-12-11T13:00:37.775Z,99894.46
2022-12-11T13:03:15.446Z,99899.46
2022-12-11T13:05:55.010Z,99903.15
2022-12-11T13:08:33.535Z,99900.90
2022-12-11T13:11:08.597Z,99902.02
2022-12-11T13:13:43.050Z,99904.75
2022-12-11T13:16:16.382Z,99901.35
2022-12-11T13:18:48.490Z,99901.17
2022-12-11T13:21:32.734Z,99902.98
2022-12-11T13:24:12.780Z,99905.13
2022-12-11T13:26:42.244Z,99906.77
2022-12-11T13:29:30.613Z,99905.84
2022-12-11T13:32:03.302Z,99902.19
2022-12-11T13:34:33.893Z,99902.16
2022-12-11T13:37:03.836Z,99902.25
2022-12-11T13:39:35.129Z,99905.11
2022-12-11T13:42:06.731Z,99908.00
2022-12-11T13:44:39.650Z,99912.52
2022-12-11T13:47:15.661Z,99908.14
2022-12-11T13:49:45.808Z,99905.56
2022-12-11T13:52:20.358Z,99902.02
2022-12-11T13:54:50.566Z,99899.79
2022-12-11T13:57:22.045Z,99898.78
2022-12-11T13:59:55.122Z,99900.32
2022-12-11T14:02:35.504Z,99899.86
2022-12-11T14:05:07.369Z,99897.98
2022-12-11T14:07:40.489Z,99898.13
2022-12-11T14:10:29.571Z,99899.02
2022-12-11T14:13:05.174Z,99896.61
2022-12-11T14:15:35.507Z,99897.08
2022-12-11T14:18:05.205Z,99896.42
2022-12-11T14:20:34.268Z,99899.45
2022-12-11T14:23:18.141Z,99899.77
2022-12-11T14:26:00.471Z,99900.37
2022-12-11T14:28:35.740Z,99898.57
2022-12-11T14:31:05.808Z,99898.79
2022-12-11T14:33:38.453Z,99899.73
2022-12-11T14:36:07.114Z,99902.02
2022-12-11T14:38:55.195Z,99900.11
2022-12-11T14:41:49.723Z,99897.36
2022-12-11T14:44:21.570Z,99897.35
2022-12-11T14:46:57.933Z,99897.28
2022-12-11T14:49:51.472Z,99900.98
2022-12-11T14:52:24.255Z,99903.96
2022-12-11T14:55:01.938Z,99906.44
2022-12-11T14:57:31.171Z,99904.71
2022-12-11T14:59:59.520Z,99896.05
2022-12-11T15:02:32.566Z,99897.95
2022-12-11T15:05:15.468Z,99894.55
2022-12-11T15:07:57.957Z,99895.67
2022-12-11T15:10:31.550Z,99898.30
2022-12-11T15:12:59.758Z,99888.66
2022-12-11T15:15:31.521Z,99891.70
2022-12-11T15:18:14.310Z,99886.57
2022-12-11T15:20:42.549Z,99889.88
2022-12-11T15:23:14.085Z,99888.91
2022-12-11T15:25:50.414Z,99886.75
2022-12-11T15:28:39.162Z,99888.55
2022-12-11T15:31:23.568Z,99886.40
2022-12-11T15:33:51.598Z,99887.19
2022-12-11T15:36:30.880Z,99881.70
2022-12-11T15:38:59.016Z,99882.54
2022-12-11T15:41:28.520Z,99882.51
2022-12-11T15:43:59.128Z,99880.56
2022-12-11T15:46:27.430Z,99883.56
2022-12-11T15:48:57.057Z,99882.83
2022-12-11T15:51:27.382Z,99885.46
2022-12-11T15:53:55.312Z,99884.67
2022-12-11T15:56:23.161Z,99884.83
2022-12-11T15:58:51.077Z,99880.98
2022-12-11T16:01:18.985Z,99879.93
2022-12-11T16:03:46.829Z,99881.09
2022-12-11T16:06:14.651Z,99884.26
2022-12-11T16:08:42.513Z,99882.41
2022-12-11T16:11:13.262Z,99880.81
2022-12-11T16:13:41.129Z,99875.70
2022-12-11T16:16:08.981Z,99867.09
2022-12-11T16:18:36.975Z,99867.16
2022-12-11T16:21:06.736Z,99862.08
2022-12-11T16:23:35.653Z,99859.02
2022-12-11T16:26:09.471Z,99857.90
2022-12-11T16:28:37.376Z,99862.95
2022-12-11T16:31:10.714Z,99860.11
2022-12-11T16:33:39.073Z,99866.67
2022-12-11T16:36:18.110Z,99866.34
2022-12-11T16:38:53.567Z,99869.74
2022-12-11T16:41:23.039Z,99873.23
2022-12-11T16:43:51.354Z,99870.96
2022-12-11T16:46:20.811Z,99870.95
2022-12-11T16:48:48.872Z,99867.34
2022-12-11T16:51:16.908Z,99867.89
2022-12-11T16:53:44.668Z,99869.52
2022-12-11T16:56:12.714Z,99870.22
2022-12-11T16:58:40.735Z,99869.86
2022-12-11T17:01:12.142Z,99871.55
2022-12-11T17:03:41.927Z,99873.42
2022-12-11T17:06:11.977Z,99872.56
2022-12-11T17:08:40.210Z,99870.33
2022-12-11T17:11:14.728Z,99869.36
2022-12-11T17:13:42.965Z,99871.92
2022-12-11T17:16:15.681Z,99872.27
2022-12-11T17:18:43.919Z,99866.90
2022-12-11T17:21:14.986Z,99863.52
2022-12-11T17:23:43.010Z,99860.71
2022-12-11T17:26:11.684Z,99863.13
2022-12-11T17:28:39.646Z,99870.21
2022-12-11T17:31:14.788Z,99872.67
2022-12-11T17:33:44.195Z,99873.16
2022-12-11T17:36:15.017Z,99871.85
2022-12-11T17:38:42.891Z,99869.98
2022-12-11T17:41:19.803Z,99872.96
2022-12-11T17:43:50.820Z,99875.42
2022-12-11T17:46:20.213Z,99873.32
2022-12-11T17:48:48.901Z,99870.61
2022-12-11T17:51:23.965Z,99876.82
2022-12-11T17:53:53.160Z,99879.06
2022-12-11T17:56:20.979Z,99883.31
2022-12-11T17:58:48.822Z,99888.45
2022-12-11T18:01:17.291Z,99886.23
2022-12-11T18:03:45.173Z,99886.16
2022-12-11T18:06:15.519Z,99889.44
2022-12-11T18:08:45.616Z,99885.11
2022-12-11T18:11:16.436Z,99883.98
2022-12-11T18:13:45.549Z,99884.67
2022-12-11T18:16:29.113Z,99884.05
2022-12-11T18:18:57.191Z,99888.60
2022-12-11T18:21:28.868Z,99890.66
2022-12-11T18:23:57.088Z,99890.95
2022-12-11T18:26:26.239Z,99885.48
2022-12-11T18:28:54.670Z,99884.32
2022-12-11T18:31:23.293Z,99882.18
2022-12-11T18:33:51.795Z,99883.42
2022-12-11T18:36:20.752Z,99883.01
2022-12-11T18:38:49.028Z,99884.81
2022-12-11T18:41:18.910Z,99880.89
2022-12-11T18:43:47.196Z,99883.48
2022-12-11T18:46:16.780Z,99883.23
2022-12-11T18:48:45.772Z,99884.39
2022-12-11T18:51:17.524Z,99881.03
2022-12-11T18:53:45.803Z,99880.04
2022-12-11T18:56:16.899Z,99884.00
2022-12-11T18:58:45.484Z,99876.39
2022-12-11T19:01:16.838Z,99874.52
2022-12-11T19:03:46.039Z,99871.84
2022-12-11T19:06:25.305Z,99870.80
2022-12-11T19:08:53.170Z,99873.97
2022-12-11T19:11:24.579Z,99872.77
2022-12-11T19:13:56.590Z,99871.61
2022-12-11T19:16:32.621Z,99875.77
2022-12-11T19:19:02.387Z,99880.15
2022-12-11T19:21:31.622Z,99882.42
2022-12-11T19:23:59.791Z,99879.40
2022-12-11T19:26:27.683Z,99875.51
2022-12-11T19:28:59.985Z,99880.86
2022-12-11T19:31:30.044Z,99880.10
2022-12-11T19:33:58.844Z,99878.09
2022-12-11T19:36:29.456Z,99879.25
2022-12-11T19:39:01.372Z,99881.65
2022-12-11T19:41:30.909Z,99881.21
2022-12-11T19:43:59.823Z,99875.42
2022-12-11T19:46:28.774Z,99872.31
2022-12-11T19:48:58.609Z,99870.29
2022-12-11T19:51:33.776Z,99868.41
2022-12-11T19:54:02.985Z,99869.16
2022-12-11T19:56:32.136Z,99869.70
2022-12-11T19:59:03.208Z,99870.63
2022-12-11T20:01:34.018Z,99870.96
2022-12-11T20:04:05.427Z,99867.83
2022-12-11T20:06:35.688Z,99868.89
2022-12-11T20:09:05.671Z,99869.14
2022-12-11T20:11:33.727Z,99871.84
2022-12-11T20:14:01.509Z,99873.55
2022-12-11T20:16:53.770Z,99874.95
2022-12-11T20:19:17.520Z,99875.57
2022-12-11T20:21:45.412Z,99871.41
2022-12-11T20:24:13.352Z,99866.58
2022-12-11T20:26:41.391Z,99863.36
2022-12-11T20:29:09.329Z,99864.33
2022-12-11T20:31:37.567Z,99861.13
2022-12-11T20:34:06.162Z,99857.89
2022-12-11T20:36:35.271Z,99854.96
2022-12-11T20:39:03.827Z,99855.09
2022-12-11T20:41:31.673Z,99855.57
2022-12-11T20:43:59.537Z,99857.31
2022-12-11T20:46:27.766Z,99856.55
2022-12-11T20:48:58.838Z,99854.16
2022-12-11T20:51:28.097Z,99852.89
2022-12-11T20:53:59.026Z,99849.56
2022-12-11T20:56:30.217Z,99849.77
2022-12-11T20:58:59.653Z,99851.89
2022-12-11T21:01:31.048Z,99851.18
2022-12-11T21:03:59.760Z,99851.67
2022-12-11T21:06:33.898Z,99850.38
2022-12-11T21:09:07.668Z,99851.11
2022-12-11T21:11:35.499Z,99852.83
2022-12-11T21:14:03.772Z,99848.97
2022-12-11T21:16:32.003Z,99848.81
2022-12-11T21:18:59.982Z,99849.38
2022-12-11T21:21:27.800Z,99851.02
2022-12-11T21:23:55.681Z,99853.92
2022-12-11T21:26:23.790Z,99851.23
2022-12-11T21:28:52.177Z,99854.88
2022-12-11T21:31:20.252Z,99851.29
2022-12-11T21:33:48.653Z,99855.09
2022-12-11T21:36:17.156Z,99858.78
2022-12-11T21:38:46.221Z,99860.52
2022-12-11T21:41:17.384Z,99857.89
2022-12-11T21:44:40.934Z,99855.09
2022-12-11T21:46:35.309Z,99852.38
2022-12-11T21:49:03.336Z,99851.36
2022-12-11T21:51:37.197Z,99848.82
2022-12-11T21:54:09.225Z,99851.96
2022-12-11T21:56:38.224Z,99854.00
2022-12-11T21:59:06.783Z,99854.71
2022-12-11T22:01:37.328Z,99856.70
2022-12-11T22:04:06.036Z,99856.95
2022-12-11T22:06:34.699Z,99851.27
2022-12-11T22:09:03.539Z,99847.08
2022-12-11T22:11:33.263Z,99841.54
2022-12-11T22:14:01.805Z,99838.48
2022-12-11T22:16:30.305Z,99836.98
2022-12-11T22:18:58.289Z,99838.76
2022-12-11T22:21:26.250Z,99840.49
2022-12-11T22:23:55.450Z,99839.31
2022-12-11T22:26:25.449Z,99842.02
2022-12-11T22:28:54.148Z,99846.10
2022-12-11T22:31:24.079Z,99840.63
2022-12-11T22:33:53.891Z,99838.27
2022-12-11T22:36:26.869Z,99837.55
2022-12-11T22:38:54.994Z,99844.39
2022-12-11T22:41:30.146Z,99845.92
2022-12-11T22:43:59.197Z,99849.27
2022-12-11T22:46:29.587Z,99848.88
2022-12-11T22:48:58.583Z,99845.58
2022-12-11T22:51:26.724Z,99844.19
2022-12-11T22:53:54.607Z,99845.98
2022-12-11T22:56:22.391Z,99848.55
2022-12-11T22:58:50.928Z,99852.65
2022-12-11T23:01:21.901Z,99851.97
2022-12-11T23:03:49.933Z,99849.35
2022-12-11T23:06:20.537Z,99845.13
2022-12-11T23:08:48.721Z,99852.28
2022-12-11T23:11:20.897Z,99850.64
2022-12-11T23:13:48.755Z,99846.08
2022-12-11T23:16:16.927Z,99845.45
2022-12-11T23:18:45.271Z,99844.75
2022-12-11T23:21:13.450Z,99848.34
2022-12-11T23:23:41.432Z,99844.17
2022-12-11T23:26:12.764Z,99849.29
2022-12-11T23:28:41.649Z,99849.01
2022-12-11T23:31:09.545Z,99845.61
2022-12-11T23:33:37.654Z,99850.77
2022-12-11T23:36:06.256Z,99847.91
2022-12-11T23:38:34.595Z,99845.20
2022-12-11T23:41:04.571Z,99848.41
2022-12-11T23:43:34.227Z,99848.02
2022-12-11T23:46:08.221Z,99846.61
2022-12-11T23:48:36.039Z,99847.54
2022-12-11T23:51:05.595Z,99845.77
2022-12-11T23:53:33.606Z,99850.44
2022-12-11T23:56:10.373Z,99849.21
2022-12-11T23:58:39.876Z,99847.16
